Terminal Aerodrome Forecast
Issued by NWS

Home | Current Version | Previous Version | Text Only | Print | Product List | Glossary On
Versions: 1 2 3 4 5 6 7 8 9 10 11 12 13 14 15 16
735
FTUS43 KDVN 110533
TAFBRL
TAF
KBRL 110533Z 1106/1206 18005KT P6SM BKN120
     FM111600 25011KT P6SM BKN150
     FM112100 31017G25KT P6SM BKN040
     FM120100 32020G30KT P6SM OVC020=

USA.gov is the U.S. government's official web portal to all federal, state and local government web resources and services.